sensor_id;sensor_type;location;lat;lon;timestamp;P1;durP1;ratioP1;P2;durP2;ratioP2
6467;SDS011;3267;48.794;9.928;2023-12-20T05:02:50;0.50;;;0.50;;
6467;SDS011;3267;48.794;9.928;2023-12-20T05:05:16;0.40;;;0.40;;
6467;SDS011;3267;48.794;9.928;2023-12-20T05:07:43;0.63;;;0.60;;
6467;SDS011;3267;48.794;9.928;2023-12-20T05:10:09;0.43;;;0.43;;
6467;SDS011;3267;48.794;9.928;2023-12-20T05:12:35;1.70;;;0.50;;
6467;SDS011;3267;48.794;9.928;2023-12-20T05:15:00;0.40;;;0.40;;
6467;SDS011;3267;48.794;9.928;2023-12-20T05:17:26;0.40;;;0.40;;
6467;SDS011;3267;48.794;9.928;2023-12-20T05:19:52;0.50;;;0.50;;
6467;SDS011;3267;48.794;9.928;2023-12-20T05:22:18;0.50;;;0.50;;
6467;SDS011;3267;48.794;9.928;2023-12-20T05:24:45;0.40;;;0.40;;
6467;SDS011;3267;48.794;9.928;2023-12-20T05:27:10;0.50;;;0.50;;
6467;SDS011;3267;48.794;9.928;2023-12-20T05:29:36;0.40;;;0.40;;
6467;SDS011;3267;48.794;9.928;2023-12-20T05:32:02;0.60;;;0.60;;
6467;SDS011;3267;48.794;9.928;2023-12-20T05:34:29;1.97;;;0.60;;
6467;SDS011;3267;48.794;9.928;2023-12-20T05:36:55;0.50;;;0.50;;
6467;SDS011;3267;48.794;9.928;2023-12-20T05:39:21;0.50;;;0.50;;
6467;SDS011;3267;48.794;9.928;2023-12-20T05:41:47;0.70;;;0.50;;
6467;SDS011;3267;48.794;9.928;2023-12-20T05:44:13;0.50;;;0.50;;
6467;SDS011;3267;48.794;9.928;2023-12-20T05:46:38;0.43;;;0.43;;
6467;SDS011;3267;48.794;9.928;2023-12-20T05:49:05;0.40;;;0.40;;
6467;SDS011;3267;48.794;9.928;2023-12-20T05:51:31;0.50;;;0.50;;
6467;SDS011;3267;48.794;9.928;2023-12-20T05:53:56;0.57;;;0.50;;
6467;SDS011;3267;48.794;9.928;2023-12-20T05:56:22;0.40;;;0.40;;
6467;SDS011;3267;48.794;9.928;2023-12-20T05:58:47;0.40;;;0.40;;
6467;SDS011;3267;48.794;9.928;2023-12-20T06:01:14;0.40;;;0.40;;
6467;SDS011;3267;48.794;9.928;2023-12-20T06:03:42;0.50;;;0.50;;
6467;SDS011;3267;48.794;9.928;2023-12-20T06:06:08;0.50;;;0.50;;
6467;SDS011;3267;48.794;9.928;2023-12-20T06:08:34;0.40;;;0.40;;
6467;SDS011;3267;48.794;9.928;2023-12-20T06:11:00;0.57;;;0.57;;
6467;SDS011;3267;48.794;9.928;2023-12-20T06:13:26;0.60;;;0.60;;
6467;SDS011;3267;48.794;9.928;2023-12-20T06:15:53;1.23;;;0.63;;
6467;SDS011;3267;48.794;9.928;2023-12-20T06:18:20;0.40;;;0.40;;
6467;SDS011;3267;48.794;9.928;2023-12-20T06:20:46;0.50;;;0.50;;
6467;SDS011;3267;48.794;9.928;2023-12-20T06:23:11;0.50;;;0.50;;
6467;SDS011;3267;48.794;9.928;2023-12-20T06:25:37;0.50;;;0.50;;
6467;SDS011;3267;48.794;9.928;2023-12-20T06:28:02;0.60;;;0.60;;
6467;SDS011;3267;48.794;9.928;2023-12-20T06:30:28;0.40;;;0.40;;
6467;SDS011;3267;48.794;9.928;2023-12-20T06:32:54;2.30;;;0.70;;
6467;SDS011;3267;48.794;9.928;2023-12-20T06:35:22;0.50;;;0.50;;
6467;SDS011;3267;48.794;9.928;2023-12-20T06:37:48;0.87;;;0.50;;
6467;SDS011;3267;48.794;9.928;2023-12-20T06:40:14;0.60;;;0.60;;
6467;SDS011;3267;48.794;9.928;2023-12-20T06:42:39;0.70;;;0.70;;
6467;SDS011;3267;48.794;9.928;2023-12-20T06:45:05;0.50;;;0.50;;
6467;SDS011;3267;48.794;9.928;2023-12-20T06:47:31;0.50;;;0.50;;
6467;SDS011;3267;48.794;9.928;2023-12-20T06:49:56;0.57;;;0.57;;
6467;SDS011;3267;48.794;9.928;2023-12-20T06:52:22;0.60;;;0.60;;
6467;SDS011;3267;48.794;9.928;2023-12-20T06:54:48;0.50;;;0.50;;
6467;SDS011;3267;48.794;9.928;2023-12-20T06:57:14;0.60;;;0.60;;
6467;SDS011;3267;48.794;9.928;2023-12-20T06:59:40;0.40;;;0.40;;
6467;SDS011;3267;48.794;9.928;2023-12-20T07:02:06;0.43;;;0.43;;
6467;SDS011;3267;48.794;9.928;2023-12-20T07:04:33;0.70;;;0.70;;
6467;SDS011;3267;48.794;9.928;2023-12-20T07:06:59;0.50;;;0.50;;
6467;SDS011;3267;48.794;9.928;2023-12-20T07:09:25;0.60;;;0.60;;
6467;SDS011;3267;48.794;9.928;2023-12-20T07:11:52;0.53;;;0.53;;
6467;SDS011;3267;48.794;9.928;2023-12-20T07:14:18;0.50;;;0.50;;
6467;SDS011;3267;48.794;9.928;2023-12-20T07:16:43;0.40;;;0.40;;
6467;SDS011;3267;48.794;9.928;2023-12-20T07:19:09;0.70;;;0.50;;
6467;SDS011;3267;48.794;9.928;2023-12-20T07:21:35;0.40;;;0.40;;
6467;SDS011;3267;48.794;9.928;2023-12-20T07:24:01;0.47;;;0.47;;
6467;SDS011;3267;48.794;9.928;2023-12-20T07:26:26;0.40;;;0.40;;
6467;SDS011;3267;48.794;9.928;2023-12-20T07:28:52;0.40;;;0.40;;
6467;SDS011;3267;48.794;9.928;2023-12-20T07:31:18;0.67;;;0.50;;
6467;SDS011;3267;48.794;9.928;2023-12-20T07:33:43;0.50;;;0.50;;
6467;SDS011;3267;48.794;9.928;2023-12-20T07:36:09;0.53;;;0.53;;
6467;SDS011;3267;48.794;9.928;2023-12-20T07:38:35;0.40;;;0.40;;
6467;SDS011;3267;48.794;9.928;2023-12-20T07:41:01;0.50;;;0.50;;
6467;SDS011;3267;48.794;9.928;2023-12-20T07:43:26;0.40;;;0.40;;
6467;SDS011;3267;48.794;9.928;2023-12-20T07:45:52;0.50;;;0.50;;
6467;SDS011;3267;48.794;9.928;2023-12-20T07:48:17;0.50;;;0.50;;
6467;SDS011;3267;48.794;9.928;2023-12-20T07:50:43;0.60;;;0.60;;
6467;SDS011;3267;48.794;9.928;2023-12-20T07:53:09;0.60;;;0.60;;
6467;SDS011;3267;48.794;9.928;2023-12-20T07:55:34;1.23;;;1.13;;
6467;SDS011;3267;48.794;9.928;2023-12-20T07:58:00;0.63;;;0.63;;
6467;SDS011;3267;48.794;9.928;2023-12-20T08:00:26;0.60;;;0.60;;
6467;SDS011;3267;48.794;9.928;2023-12-20T08:02:52;0.60;;;0.60;;
6467;SDS011;3267;48.794;9.928;2023-12-20T08:05:17;0.70;;;0.70;;
6467;SDS011;3267;48.794;9.928;2023-12-20T08:07:43;0.83;;;0.83;;
6467;SDS011;3267;48.794;9.928;2023-12-20T08:10:09;0.80;;;0.73;;
6467;SDS011;3267;48.794;9.928;2023-12-20T08:12:35;0.63;;;0.63;;
6467;SDS011;3267;48.794;9.928;2023-12-20T08:15:01;0.77;;;0.77;;
6467;SDS011;3267;48.794;9.928;2023-12-20T08:17:27;2.57;;;0.80;;
6467;SDS011;3267;48.794;9.928;2023-12-20T08:19:52;5.10;;;0.90;;
6467;SDS011;3267;48.794;9.928;2023-12-20T08:22:18;1.10;;;0.90;;
6467;SDS011;3267;48.794;9.928;2023-12-20T08:24:44;0.90;;;0.90;;
6467;SDS011;3267;48.794;9.928;2023-12-20T08:27:10;0.90;;;0.90;;
6467;SDS011;3267;48.794;9.928;2023-12-20T08:29:36;1.20;;;0.80;;
6467;SDS011;3267;48.794;9.928;2023-12-20T08:32:01;0.90;;;0.90;;
6467;SDS011;3267;48.794;9.928;2023-12-20T08:34:27;0.70;;;0.70;;
6467;SDS011;3267;48.794;9.928;2023-12-20T08:36:53;0.63;;;0.63;;
6467;SDS011;3267;48.794;9.928;2023-12-20T08:39:19;0.97;;;0.97;;
6467;SDS011;3267;48.794;9.928;2023-12-20T08:41:45;0.83;;;0.83;;
6467;SDS011;3267;48.794;9.928;2023-12-20T08:44:10;0.87;;;0.87;;
6467;SDS011;3267;48.794;9.928;2023-12-20T08:46:36;1.07;;;1.07;;
6467;SDS011;3267;48.794;9.928;2023-12-20T08:49:02;2.10;;;0.80;;
6467;SDS011;3267;48.794;9.928;2023-12-20T08:51:28;1.13;;;1.00;;
6467;SDS011;3267;48.794;9.928;2023-12-20T08:53:54;1.10;;;1.10;;
6467;SDS011;3267;48.794;9.928;2023-12-20T08:56:19;1.33;;;1.27;;
6467;SDS011;3267;48.794;9.928;2023-12-20T08:58:46;1.20;;;1.20;;
6467;SDS011;3267;48.794;9.928;2023-12-20T09:01:12;1.20;;;1.10;;
6467;SDS011;3267;48.794;9.928;2023-12-20T09:03:39;2.30;;;0.97;;
6467;SDS011;3267;48.794;9.928;2023-12-20T09:06:05;1.97;;;1.00;;
6467;SDS011;3267;48.794;9.928;2023-12-20T09:08:31;1.40;;;1.30;;
6467;SDS011;3267;48.794;9.928;2023-12-20T09:10:57;1.47;;;1.30;;
6467;SDS011;3267;48.794;9.928;2023-12-20T09:13:22;1.60;;;1.50;;
6467;SDS011;3267;48.794;9.928;2023-12-20T09:15:54;1.17;;;1.17;;
6467;SDS011;3267;48.794;9.928;2023-12-20T09:18:20;1.30;;;1.30;;
6467;SDS011;3267;48.794;9.928;2023-12-20T09:20:46;1.97;;;1.40;;
6467;SDS011;3267;48.794;9.928;2023-12-20T09:23:12;3.80;;;2.10;;
6467;SDS011;3267;48.794;9.928;2023-12-20T09:25:37;2.03;;;1.83;;
6467;SDS011;3267;48.794;9.928;2023-12-20T09:28:03;2.43;;;1.50;;
6467;SDS011;3267;48.794;9.928;2023-12-20T09:30:29;1.17;;;1.13;;
6467;SDS011;3267;48.794;9.928;2023-12-20T09:32:55;0.63;;;0.63;;
6467;SDS011;3267;48.794;9.928;2023-12-20T09:35:20;1.83;;;1.27;;
6467;SDS011;3267;48.794;9.928;2023-12-20T09:37:47;1.40;;;1.40;;
6467;SDS011;3267;48.794;9.928;2023-12-20T09:40:12;1.77;;;1.47;;
6467;SDS011;3267;48.794;9.928;2023-12-20T09:42:57;1.60;;;1.50;;
6467;SDS011;3267;48.794;9.928;2023-12-20T09:45:23;1.37;;;1.27;;
6467;SDS011;3267;48.794;9.928;2023-12-20T09:47:50;3.10;;;1.20;;
6467;SDS011;3267;48.794;9.928;2023-12-20T09:50:18;1.83;;;1.63;;
6467;SDS011;3267;48.794;9.928;2023-12-20T09:52:45;1.80;;;1.40;;
6467;SDS011;3267;48.794;9.928;2023-12-20T09:55:15;4.50;;;1.57;;
6467;SDS011;3267;48.794;9.928;2023-12-20T09:57:43;2.60;;;1.30;;
6467;SDS011;3267;48.794;9.928;2023-12-20T10:00:08;1.87;;;1.50;;
6467;SDS011;3267;48.794;9.928;2023-12-20T10:02:35;1.50;;;1.40;;
6467;SDS011;3267;48.794;9.928;2023-12-20T10:05:03;1.70;;;1.60;;
6467;SDS011;3267;48.794;9.928;2023-12-20T10:07:34;1.60;;;1.43;;
6467;SDS011;3267;48.794;9.928;2023-12-20T10:10:00;3.60;;;1.20;;
6467;SDS011;3267;48.794;9.928;2023-12-20T10:12:27;1.77;;;1.30;;
6467;SDS011;3267;48.794;9.928;2023-12-20T10:14:53;3.80;;;1.40;;
6467;SDS011;3267;48.794;9.928;2023-12-20T10:17:18;1.60;;;1.40;;
6467;SDS011;3267;48.794;9.928;2023-12-20T10:19:46;1.90;;;0.80;;
6467;SDS011;3267;48.794;9.928;2023-12-20T10:22:12;3.73;;;1.50;;
6467;SDS011;3267;48.794;9.928;2023-12-20T10:24:39;2.30;;;1.30;;
6467;SDS011;3267;48.794;9.928;2023-12-20T10:27:06;1.10;;;0.93;;
6467;SDS011;3267;48.794;9.928;2023-12-20T10:29:35;1.07;;;1.07;;
6467;SDS011;3267;48.794;9.928;2023-12-20T10:34:57;2.07;;;0.80;;
6467;SDS011;3267;48.794;9.928;2023-12-20T10:37:24;2.27;;;1.03;;
6467;SDS011;3267;48.794;9.928;2023-12-20T10:39:51;1.73;;;1.17;;
6467;SDS011;3267;48.794;9.928;2023-12-20T10:42:21;1.40;;;1.30;;
6467;SDS011;3267;48.794;9.928;2023-12-20T10:44:48;2.20;;;1.30;;
6467;SDS011;3267;48.794;9.928;2023-12-20T10:47:15;2.23;;;1.30;;
6467;SDS011;3267;48.794;9.928;2023-12-20T10:49:42;1.00;;;1.00;;
6467;SDS011;3267;48.794;9.928;2023-12-20T10:52:09;4.17;;;0.93;;
6467;SDS011;3267;48.794;9.928;2023-12-20T10:54:38;2.40;;;1.13;;
6467;SDS011;3267;48.794;9.928;2023-12-20T10:57:07;2.80;;;1.30;;
6467;SDS011;3267;48.794;9.928;2023-12-20T10:59:33;2.03;;;1.57;;
6467;SDS011;3267;48.794;9.928;2023-12-20T11:02:02;4.10;;;1.30;;
6467;SDS011;3267;48.794;9.928;2023-12-20T11:04:50;1.53;;;1.00;;
6467;SDS011;3267;48.794;9.928;2023-12-20T11:07:23;2.33;;;1.40;;
6467;SDS011;3267;48.794;9.928;2023-12-20T11:10:41;0.90;;;0.90;;
6467;SDS011;3267;48.794;9.928;2023-12-20T11:12:53;4.00;;;1.30;;
6467;SDS011;3267;48.794;9.928;2023-12-20T11:15:24;2.13;;;1.80;;
6467;SDS011;3267;48.794;9.928;2023-12-20T11:17:56;2.97;;;1.70;;
6467;SDS011;3267;48.794;9.928;2023-12-20T11:20:24;2.17;;;1.40;;
6467;SDS011;3267;48.794;9.928;2023-12-20T11:23:00;4.17;;;2.00;;
6467;SDS011;3267;48.794;9.928;2023-12-20T11:25:26;4.37;;;1.53;;
6467;SDS011;3267;48.794;9.928;2023-12-20T11:28:11;1.73;;;1.37;;
6467;SDS011;3267;48.794;9.928;2023-12-20T11:30:47;8.87;;;3.53;;
6467;SDS011;3267;48.794;9.928;2023-12-20T11:33:15;3.53;;;1.73;;
6467;SDS011;3267;48.794;9.928;2023-12-20T11:35:42;4.33;;;1.70;;
6467;SDS011;3267;48.794;9.928;2023-12-20T11:38:09;2.77;;;1.30;;
6467;SDS011;3267;48.794;9.928;2023-12-20T11:40:35;4.00;;;1.23;;
6467;SDS011;3267;48.794;9.928;2023-12-20T11:43:02;5.47;;;1.40;;
6467;SDS011;3267;48.794;9.928;2023-12-20T11:45:28;2.20;;;1.00;;
6467;SDS011;3267;48.794;9.928;2023-12-20T11:47:53;1.67;;;0.80;;
6467;SDS011;3267;48.794;9.928;2023-12-20T11:50:21;1.27;;;0.70;;
6467;SDS011;3267;48.794;9.928;2023-12-20T11:52:48;5.77;;;1.00;;
6467;SDS011;3267;48.794;9.928;2023-12-20T11:55:14;3.67;;;1.27;;
6467;SDS011;3267;48.794;9.928;2023-12-20T11:57:41;2.20;;;1.23;;
6467;SDS011;3267;48.794;9.928;2023-12-20T12:00:08;4.27;;;1.07;;
6467;SDS011;3267;48.794;9.928;2023-12-20T12:02:33;6.93;;;1.50;;
6467;SDS011;3267;48.794;9.928;2023-12-20T12:04:59;2.93;;;1.07;;
6467;SDS011;3267;48.794;9.928;2023-12-20T12:07:25;3.00;;;0.97;;
6467;SDS011;3267;48.794;9.928;2023-12-20T12:09:52;3.63;;;0.87;;
6467;SDS011;3267;48.794;9.928;2023-12-20T12:12:18;2.93;;;1.20;;
6467;SDS011;3267;48.794;9.928;2023-12-20T12:14:45;1.77;;;1.03;;
6467;SDS011;3267;48.794;9.928;2023-12-20T12:17:11;1.07;;;0.80;;
6467;SDS011;3267;48.794;9.928;2023-12-20T12:19:38;7.70;;;1.13;;
6467;SDS011;3267;48.794;9.928;2023-12-20T12:22:08;3.77;;;1.17;;
6467;SDS011;3267;48.794;9.928;2023-12-20T12:24:38;2.63;;;0.97;;
6467;SDS011;3267;48.794;9.928;2023-12-20T12:27:07;3.20;;;1.37;;
6467;SDS011;3267;48.794;9.928;2023-12-20T12:29:34;1.60;;;0.90;;
6467;SDS011;3267;48.794;9.928;2023-12-20T12:32:00;2.90;;;0.90;;
6467;SDS011;3267;48.794;9.928;2023-12-20T12:34:29;2.40;;;0.70;;
6467;SDS011;3267;48.794;9.928;2023-12-20T12:36:56;2.43;;;1.17;;
6467;SDS011;3267;48.794;9.928;2023-12-20T12:39:23;2.20;;;1.07;;
6467;SDS011;3267;48.794;9.928;2023-12-20T12:41:50;4.90;;;1.30;;
6467;SDS011;3267;48.794;9.928;2023-12-20T12:44:16;3.77;;;1.07;;
6467;SDS011;3267;48.794;9.928;2023-12-20T12:46:43;2.70;;;1.30;;
6467;SDS011;3267;48.794;9.928;2023-12-20T12:49:09;2.67;;;1.10;;
6467;SDS011;3267;48.794;9.928;2023-12-20T12:51:35;4.83;;;1.53;;
6467;SDS011;3267;48.794;9.928;2023-12-20T12:54:00;3.60;;;1.53;;
6467;SDS011;3267;48.794;9.928;2023-12-20T12:56:27;2.50;;;1.03;;
6467;SDS011;3267;48.794;9.928;2023-12-20T12:58:52;1.90;;;1.20;;
6467;SDS011;3267;48.794;9.928;2023-12-20T13:01:18;3.87;;;1.47;;
6467;SDS011;3267;48.794;9.928;2023-12-20T13:03:44;2.33;;;1.07;;
6467;SDS011;3267;48.794;9.928;2023-12-20T13:06:09;3.73;;;1.13;;
6467;SDS011;3267;48.794;9.928;2023-12-20T13:08:35;4.20;;;1.40;;
6467;SDS011;3267;48.794;9.928;2023-12-20T13:11:00;4.83;;;1.33;;
6467;SDS011;3267;48.794;9.928;2023-12-20T13:13:29;6.83;;;1.70;;
6467;SDS011;3267;48.794;9.928;2023-12-20T13:15:55;3.83;;;1.40;;
6467;SDS011;3267;48.794;9.928;2023-12-20T13:18:22;3.60;;;1.03;;
6467;SDS011;3267;48.794;9.928;2023-12-20T13:20:48;5.80;;;1.30;;
6467;SDS011;3267;48.794;9.928;2023-12-20T13:23:14;2.83;;;1.00;;
6467;SDS011;3267;48.794;9.928;2023-12-20T13:25:41;3.87;;;1.03;;
6467;SDS011;3267;48.794;9.928;2023-12-20T13:28:07;2.97;;;0.80;;
6467;SDS011;3267;48.794;9.928;2023-12-20T13:30:33;1.77;;;0.80;;
6467;SDS011;3267;48.794;9.928;2023-12-20T13:32:59;0.70;;;0.70;;
6467;SDS011;3267;48.794;9.928;2023-12-20T13:35:25;3.07;;;1.03;;
6467;SDS011;3267;48.794;9.928;2023-12-20T13:37:50;1.10;;;1.00;;
6467;SDS011;3267;48.794;9.928;2023-12-20T13:40:16;1.23;;;0.97;;
6467;SDS011;3267;48.794;9.928;2023-12-20T13:42:41;1.13;;;0.80;;
6467;SDS011;3267;48.794;9.928;2023-12-20T13:45:07;4.00;;;1.37;;
6467;SDS011;3267;48.794;9.928;2023-12-20T13:47:33;3.77;;;1.90;;
6467;SDS011;3267;48.794;9.928;2023-12-20T13:50:00;1.27;;;0.87;;
6467;SDS011;3267;48.794;9.928;2023-12-20T13:52:25;1.57;;;1.10;;
6467;SDS011;3267;48.794;9.928;2023-12-20T13:54:51;2.93;;;1.40;;
6467;SDS011;3267;48.794;9.928;2023-12-20T13:57:16;1.93;;;1.03;;
6467;SDS011;3267;48.794;9.928;2023-12-20T13:59:42;3.13;;;1.37;;
6467;SDS011;3267;48.794;9.928;2023-12-20T14:02:08;4.43;;;1.30;;
6467;SDS011;3267;48.794;9.928;2023-12-20T14:04:33;2.10;;;1.10;;
6467;SDS011;3267;48.794;9.928;2023-12-20T14:06:59;5.00;;;1.17;;
6467;SDS011;3267;48.794;9.928;2023-12-20T14:09:25;1.80;;;1.20;;
6467;SDS011;3267;48.794;9.928;2023-12-20T14:11:50;2.23;;;1.23;;
6467;SDS011;3267;48.794;9.928;2023-12-20T14:14:16;3.80;;;1.10;;
6467;SDS011;3267;48.794;9.928;2023-12-20T14:16:41;2.83;;;1.37;;
6467;SDS011;3267;48.794;9.928;2023-12-20T14:19:10;2.33;;;1.00;;
6467;SDS011;3267;48.794;9.928;2023-12-20T14:21:37;2.93;;;1.17;;
6467;SDS011;3267;48.794;9.928;2023-12-20T14:24:03;5.97;;;1.20;;
6467;SDS011;3267;48.794;9.928;2023-12-20T14:26:29;6.40;;;1.30;;
6467;SDS011;3267;48.794;9.928;2023-12-20T14:28:55;4.43;;;1.20;;
6467;SDS011;3267;48.794;9.928;2023-12-20T14:31:21;2.00;;;1.17;;
6467;SDS011;3267;48.794;9.928;2023-12-20T14:33:49;7.43;;;1.70;;
6467;SDS011;3267;48.794;9.928;2023-12-20T14:36:16;6.23;;;1.83;;
6467;SDS011;3267;48.794;9.928;2023-12-20T14:38:43;6.10;;;1.80;;
6467;SDS011;3267;48.794;9.928;2023-12-20T14:41:09;1.43;;;0.80;;
6467;SDS011;3267;48.794;9.928;2023-12-20T14:43:34;3.63;;;1.40;;
6467;SDS011;3267;48.794;9.928;2023-12-20T14:46:00;5.03;;;1.17;;
6467;SDS011;3267;48.794;9.928;2023-12-20T14:48:26;3.17;;;1.03;;
6467;SDS011;3267;48.794;9.928;2023-12-20T14:50:53;4.03;;;1.33;;
6467;SDS011;3267;48.794;9.928;2023-12-20T14:53:18;6.13;;;1.80;;
6467;SDS011;3267;48.794;9.928;2023-12-20T14:55:45;4.87;;;2.70;;
6467;SDS011;3267;48.794;9.928;2023-12-20T14:58:12;3.10;;;1.40;;
6467;SDS011;3267;48.794;9.928;2023-12-20T15:00:38;4.80;;;1.83;;
6467;SDS011;3267;48.794;9.928;2023-12-20T15:03:03;3.17;;;1.10;;
6467;SDS011;3267;48.794;9.928;2023-12-20T15:05:30;4.27;;;1.20;;
6467;SDS011;3267;48.794;9.928;2023-12-20T15:07:56;4.07;;;1.87;;
6467;SDS011;3267;48.794;9.928;2023-12-20T15:10:22;5.77;;;1.77;;
6467;SDS011;3267;48.794;9.928;2023-12-20T15:12:47;6.43;;;1.80;;
6467;SDS011;3267;48.794;9.928;2023-12-20T15:15:13;1.90;;;1.20;;
6467;SDS011;3267;48.794;9.928;2023-12-20T15:17:39;5.17;;;1.20;;
6467;SDS011;3267;48.794;9.928;2023-12-20T15:20:05;3.40;;;1.20;;
6467;SDS011;3267;48.794;9.928;2023-12-20T15:22:31;3.53;;;1.23;;
6467;SDS011;3267;48.794;9.928;2023-12-20T15:24:58;2.70;;;1.40;;
6467;SDS011;3267;48.794;9.928;2023-12-20T15:27:26;2.00;;;1.23;;
6467;SDS011;3267;48.794;9.928;2023-12-20T15:29:51;5.07;;;1.27;;
6467;SDS011;3267;48.794;9.928;2023-12-20T15:32:17;7.00;;;1.30;;
6467;SDS011;3267;48.794;9.928;2023-12-20T15:34:46;4.07;;;1.43;;
6467;SDS011;3267;48.794;9.928;2023-12-20T15:37:11;7.43;;;2.23;;
6467;SDS011;3267;48.794;9.928;2023-12-20T15:39:37;5.03;;;2.07;;
6467;SDS011;3267;48.794;9.928;2023-12-20T15:42:03;3.73;;;1.50;;
6467;SDS011;3267;48.794;9.928;2023-12-20T15:44:29;4.57;;;1.80;;
6467;SDS011;3267;48.794;9.928;2023-12-20T15:46:54;3.33;;;1.57;;
6467;SDS011;3267;48.794;9.928;2023-12-20T15:49:20;3.87;;;1.70;;
6467;SDS011;3267;48.794;9.928;2023-12-20T15:51:46;2.17;;;1.37;;
6467;SDS011;3267;48.794;9.928;2023-12-20T15:54:12;2.50;;;0.97;;
6467;SDS011;3267;48.794;9.928;2023-12-20T15:56:37;1.70;;;1.00;;
6467;SDS011;3267;48.794;9.928;2023-12-20T15:59:05;4.33;;;1.37;;
6467;SDS011;3267;48.794;9.928;2023-12-20T16:01:31;5.87;;;1.50;;
6467;SDS011;3267;48.794;9.928;2023-12-20T16:03:57;2.73;;;1.27;;
6467;SDS011;3267;48.794;9.928;2023-12-20T16:06:23;3.20;;;1.30;;
6467;SDS011;3267;48.794;9.928;2023-12-20T16:08:49;2.70;;;1.30;;
6467;SDS011;3267;48.794;9.928;2023-12-20T16:11:15;3.23;;;1.30;;
6467;SDS011;3267;48.794;9.928;2023-12-20T16:13:40;2.83;;;1.50;;
6467;SDS011;3267;48.794;9.928;2023-12-20T16:16:06;3.63;;;1.20;;
6467;SDS011;3267;48.794;9.928;2023-12-20T16:18:32;3.63;;;1.57;;
6467;SDS011;3267;48.794;9.928;2023-12-20T16:20:58;3.90;;;1.57;;
6467;SDS011;3267;48.794;9.928;2023-12-20T16:23:26;1.30;;;0.83;;
6467;SDS011;3267;48.794;9.928;2023-12-20T16:25:52;3.17;;;1.00;;
6467;SDS011;3267;48.794;9.928;2023-12-20T16:28:18;3.17;;;1.30;;
6467;SDS011;3267;48.794;9.928;2023-12-20T16:30:44;5.00;;;1.30;;
6467;SDS011;3267;48.794;9.928;2023-12-20T16:33:09;2.83;;;1.20;;
6467;SDS011;3267;48.794;9.928;2023-12-20T16:35:35;5.03;;;1.30;;
6467;SDS011;3267;48.794;9.928;2023-12-20T16:38:00;1.03;;;0.90;;
6467;SDS011;3267;48.794;9.928;2023-12-20T16:40:26;2.93;;;1.27;;
6467;SDS011;3267;48.794;9.928;2023-12-20T16:42:52;3.77;;;1.40;;
6467;SDS011;3267;48.794;9.928;2023-12-20T16:45:19;1.63;;;0.90;;
6467;SDS011;3267;48.794;9.928;2023-12-20T16:47:45;1.57;;;0.60;;
6467;SDS011;3267;48.794;9.928;2023-12-20T16:50:11;2.73;;;1.13;;
6467;SDS011;3267;48.794;9.928;2023-12-20T16:52:37;3.83;;;1.20;;
6467;SDS011;3267;48.794;9.928;2023-12-20T16:55:04;3.90;;;1.37;;
6467;SDS011;3267;48.794;9.928;2023-12-20T16:57:30;4.07;;;1.17;;
6467;SDS011;3267;48.794;9.928;2023-12-20T16:59:55;2.87;;;1.30;;
6467;SDS011;3267;48.794;9.928;2023-12-20T17:02:21;1.67;;;0.90;;
6467;SDS011;3267;48.794;9.928;2023-12-20T17:04:47;3.03;;;1.27;;
6467;SDS011;3267;48.794;9.928;2023-12-20T17:07:14;3.50;;;1.60;;
6467;SDS011;3267;48.794;9.928;2023-12-20T17:09:39;4.07;;;1.10;;
6467;SDS011;3267;48.794;9.928;2023-12-20T17:12:05;1.90;;;1.10;;
6467;SDS011;3267;48.794;9.928;2023-12-20T17:14:33;5.00;;;1.20;;
6467;SDS011;3267;48.794;9.928;2023-12-20T17:16:59;2.13;;;1.13;;
6467;SDS011;3267;48.794;9.928;2023-12-20T17:19:24;0.60;;;0.60;;
6467;SDS011;3267;48.794;9.928;2023-12-20T17:21:50;2.57;;;1.47;;
6467;SDS011;3267;48.794;9.928;2023-12-20T17:24:17;1.33;;;1.00;;
6467;SDS011;3267;48.794;9.928;2023-12-20T17:26:43;2.57;;;1.23;;
6467;SDS011;3267;48.794;9.928;2023-12-20T17:29:08;1.73;;;1.10;;
6467;SDS011;3267;48.794;9.928;2023-12-20T17:31:34;1.30;;;1.00;;
6467;SDS011;3267;48.794;9.928;2023-12-20T17:34:01;4.73;;;1.90;;
6467;SDS011;3267;48.794;9.928;2023-12-20T17:36:26;2.67;;;0.97;;
6467;SDS011;3267;48.794;9.928;2023-12-20T17:38:52;2.20;;;1.00;;
6467;SDS011;3267;48.794;9.928;2023-12-20T17:41:18;1.60;;;1.07;;
6467;SDS011;3267;48.794;9.928;2023-12-20T17:43:43;2.20;;;0.90;;
6467;SDS011;3267;48.794;9.928;2023-12-20T17:46:09;1.20;;;0.77;;
6467;SDS011;3267;48.794;9.928;2023-12-20T17:48:34;9.87;;;1.50;;
6467;SDS011;3267;48.794;9.928;2023-12-20T17:51:00;2.80;;;1.30;;
6467;SDS011;3267;48.794;9.928;2023-12-20T17:53:26;0.90;;;0.90;;
6467;SDS011;3267;48.794;9.928;2023-12-20T17:55:52;1.03;;;0.73;;
6467;SDS011;3267;48.794;9.928;2023-12-20T17:58:17;2.07;;;1.10;;
6467;SDS011;3267;48.794;9.928;2023-12-20T18:00:43;1.70;;;1.00;;
6467;SDS011;3267;48.794;9.928;2023-12-20T18:03:10;0.87;;;0.60;;
6467;SDS011;3267;48.794;9.928;2023-12-20T18:05:36;1.00;;;0.90;;
6467;SDS011;3267;48.794;9.928;2023-12-20T18:08:02;1.83;;;1.40;;
6467;SDS011;3267;48.794;9.928;2023-12-20T18:10:27;0.83;;;0.80;;
6467;SDS011;3267;48.794;9.928;2023-12-20T18:12:53;3.13;;;1.20;;
6467;SDS011;3267;48.794;9.928;2023-12-20T18:15:21;1.37;;;1.17;;
6467;SDS011;3267;48.794;9.928;2023-12-20T18:17:46;0.70;;;0.70;;
6467;SDS011;3267;48.794;9.928;2023-12-20T18:20:15;2.60;;;0.83;;
6467;SDS011;3267;48.794;9.928;2023-12-20T18:22:41;1.07;;;0.80;;
6467;SDS011;3267;48.794;9.928;2023-12-20T18:25:07;1.10;;;0.77;;
6467;SDS011;3267;48.794;9.928;2023-12-20T18:27:33;1.10;;;1.00;;
6467;SDS011;3267;48.794;9.928;2023-12-20T18:29:59;0.90;;;0.70;;
6467;SDS011;3267;48.794;9.928;2023-12-20T18:32:33;2.83;;;1.33;;
6467;SDS011;3267;48.794;9.928;2023-12-20T18:35:00;4.47;;;1.70;;
6467;SDS011;3267;48.794;9.928;2023-12-20T18:37:27;3.53;;;0.93;;
6467;SDS011;3267;48.794;9.928;2023-12-20T18:39:54;2.33;;;0.93;;
6467;SDS011;3267;48.794;9.928;2023-12-20T18:42:20;2.93;;;0.90;;
6467;SDS011;3267;48.794;9.928;2023-12-20T18:44:46;3.03;;;1.70;;
6467;SDS011;3267;48.794;9.928;2023-12-20T18:47:12;1.83;;;1.00;;
6467;SDS011;3267;48.794;9.928;2023-12-20T18:49:37;1.33;;;1.10;;
6467;SDS011;3267;48.794;9.928;2023-12-20T18:52:03;1.80;;;1.00;;
6467;SDS011;3267;48.794;9.928;2023-12-20T18:54:31;2.13;;;1.17;;
6467;SDS011;3267;48.794;9.928;2023-12-20T18:56:57;2.83;;;1.10;;
6467;SDS011;3267;48.794;9.928;2023-12-20T18:59:22;3.90;;;1.23;;
6467;SDS011;3267;48.794;9.928;2023-12-20T19:01:49;1.00;;;0.83;;
6467;SDS011;3267;48.794;9.928;2023-12-20T19:04:15;3.27;;;2.27;;
6467;SDS011;3267;48.794;9.928;2023-12-20T19:06:41;6.23;;;2.47;;
6467;SDS011;3267;48.794;9.928;2023-12-20T19:09:07;2.90;;;1.00;;
6467;SDS011;3267;48.794;9.928;2023-12-20T19:11:33;2.93;;;1.10;;
6467;SDS011;3267;48.794;9.928;2023-12-20T19:13:59;1.63;;;0.77;;
6467;SDS011;3267;48.794;9.928;2023-12-20T19:16:25;3.00;;;1.17;;
6467;SDS011;3267;48.794;9.928;2023-12-20T19:18:51;2.03;;;1.23;;
6467;SDS011;3267;48.794;9.928;2023-12-20T19:21:17;3.67;;;1.30;;
6467;SDS011;3267;48.794;9.928;2023-12-20T19:23:43;2.77;;;1.00;;
6467;SDS011;3267;48.794;9.928;2023-12-20T19:26:12;1.53;;;1.10;;
6467;SDS011;3267;48.794;9.928;2023-12-20T19:28:39;3.27;;;1.07;;
6467;SDS011;3267;48.794;9.928;2023-12-20T19:31:05;5.33;;;1.27;;
6467;SDS011;3267;48.794;9.928;2023-12-20T19:33:37;3.70;;;1.37;;
6467;SDS011;3267;48.794;9.928;2023-12-20T19:36:04;3.20;;;1.50;;
6467;SDS011;3267;48.794;9.928;2023-12-20T19:38:30;1.27;;;0.83;;
6467;SDS011;3267;48.794;9.928;2023-12-20T19:40:57;4.77;;;1.10;;
6467;SDS011;3267;48.794;9.928;2023-12-20T19:43:23;1.00;;;1.00;;
6467;SDS011;3267;48.794;9.928;2023-12-20T19:45:49;1.20;;;1.00;;
6467;SDS011;3267;48.794;9.928;2023-12-20T19:48:15;2.10;;;1.20;;
6467;SDS011;3267;48.794;9.928;2023-12-20T19:50:41;2.50;;;1.40;;
6467;SDS011;3267;48.794;9.928;2023-12-20T19:53:06;2.23;;;1.27;;
6467;SDS011;3267;48.794;9.928;2023-12-20T19:55:35;2.03;;;1.27;;
6467;SDS011;3267;48.794;9.928;2023-12-20T19:58:00;1.60;;;1.00;;
6467;SDS011;3267;48.794;9.928;2023-12-20T20:00:26;2.77;;;1.27;;
6467;SDS011;3267;48.794;9.928;2023-12-20T20:02:53;1.23;;;0.93;;
6467;SDS011;3267;48.794;9.928;2023-12-20T20:05:18;0.50;;;0.50;;
6467;SDS011;3267;48.794;9.928;2023-12-20T20:07:44;0.60;;;0.60;;
6467;SDS011;3267;48.794;9.928;2023-12-20T20:10:10;3.07;;;1.23;;
6467;SDS011;3267;48.794;9.928;2023-12-20T20:12:37;3.57;;;1.00;;
6467;SDS011;3267;48.794;9.928;2023-12-20T20:15:03;2.40;;;1.10;;